createdAt,value
2018-01-15T00:02:02.752Z,63.87
2018-01-15T00:04:31.407Z,71.68
2018-01-15T00:06:59.731Z,63.83
2018-01-15T00:09:28.193Z,72.50
2018-01-15T00:11:57.073Z,53.05
2018-01-15T00:14:26.152Z,62.35
2018-01-15T00:16:54.515Z,65.20
2018-01-15T00:19:22.832Z,61.33
2018-01-15T00:21:51.147Z,56.33
2018-01-15T00:24:19.499Z,53.47
2018-01-15T00:26:47.815Z,52.58
2018-01-15T00:29:16.741Z,57.88
2018-01-15T00:31:45.635Z,57.35
2018-01-15T00:34:13.971Z,65.00
2018-01-15T00:36:42.508Z,51.13
2018-01-15T00:39:11.254Z,55.22
2018-01-15T00:41:39.571Z,68.00
2018-01-15T00:44:07.879Z,65.70
2018-01-15T00:46:36.253Z,68.03
2018-01-15T00:49:05.175Z,91.47
2018-01-15T00:51:34.096Z,77.45
2018-01-15T00:54:02.444Z,71.93
2018-01-15T00:56:30.779Z,95.22
2018-01-15T00:58:59.096Z,94.60
2018-01-15T01:01:27.435Z,71.22
2018-01-15T01:03:55.751Z,88.43
2018-01-15T01:06:24.764Z,78.28
2018-01-15T01:08:53.671Z,74.22
2018-01-15T01:11:21.994Z,70.05
2018-01-15T01:13:50.372Z,63.30
2018-01-15T01:16:21.763Z,76.37
2018-01-15T01:18:51.407Z,87.37
2018-01-15T01:21:19.782Z,90.00
2018-01-15T01:23:48.148Z,93.18
2018-01-15T01:26:18.594Z,82.47
2018-01-15T01:28:46.903Z,79.00
2018-01-15T01:31:15.919Z,79.25
2018-01-15T01:33:44.238Z,79.10
2018-01-15T01:36:12.552Z,97.75
2018-01-15T01:38:40.923Z,88.03
2018-01-15T01:41:09.236Z,84.80
2018-01-15T01:43:37.551Z,126.62
2018-01-15T01:46:06.164Z,106.15
2018-01-15T01:48:35.211Z,114.82
2018-01-15T01:51:04.288Z,71.10
2018-01-15T01:53:32.647Z,82.43
2018-01-15T01:56:00.966Z,95.40
2018-01-15T01:58:29.280Z,97.07
2018-01-15T02:00:57.647Z,94.45
2018-01-15T02:03:25.962Z,93.97
2018-01-15T02:05:54.276Z,90.82
2018-01-15T02:08:22.615Z,93.65
2018-01-15T02:10:50.939Z,93.82
2018-01-15T02:13:20.118Z,76.22
2018-01-15T02:15:48.420Z,95.47
2018-01-15T02:18:16.764Z,93.60
2018-01-15T02:20:46.059Z,75.18
2018-01-15T02:23:14.770Z,83.07
2018-01-15T02:25:43.400Z,76.37
2018-01-15T02:28:12.478Z,90.10
2018-01-15T02:30:41.144Z,61.08
2018-01-15T02:33:09.456Z,81.50
2018-01-15T02:35:37.796Z,80.57
2018-01-15T02:38:07.512Z,82.00
2018-01-15T02:40:36.484Z,90.68
2018-01-15T02:43:04.812Z,103.22
2018-01-15T02:45:33.129Z,84.80
2018-01-15T02:48:01.507Z,130.05
2018-01-15T02:50:29.828Z,97.32
2018-01-15T02:52:58.146Z,87.90
2018-01-15T02:55:26.777Z,84.87
2018-01-15T02:57:55.086Z,93.62
2018-01-15T03:00:23.600Z,99.03
2018-01-15T03:02:52.559Z,113.90
2018-01-15T03:05:21.047Z,122.65
2018-01-15T03:07:49.512Z,100.38
2018-01-15T03:10:18.104Z,107.60
2018-01-15T03:12:46.644Z,116.97
2018-01-15T03:15:16.457Z,108.78
2018-01-15T03:17:45.223Z,140.15
2018-01-15T03:20:15.421Z,131.10
2018-01-15T03:22:44.184Z,125.55
2018-01-15T03:25:12.910Z,119.32
2018-01-15T03:27:42.326Z,109.97
2018-01-15T03:30:11.279Z,129.52
2018-01-15T03:32:39.667Z,130.77
2018-01-15T03:35:07.979Z,120.40
2018-01-15T03:37:36.875Z,123.65
2018-01-15T03:40:05.243Z,93.20
2018-01-15T03:42:33.564Z,99.78
2018-01-15T03:45:01.940Z,114.07
2018-01-15T03:47:30.280Z,105.18
2018-01-15T03:49:58.980Z,113.68
2018-01-15T03:52:28.099Z,104.30
2018-01-15T03:54:56.427Z,121.40
2018-01-15T03:57:24.762Z,118.25
2018-01-15T03:59:53.128Z,102.25
2018-01-15T04:02:21.504Z,94.55
2018-01-15T04:04:50.408Z,96.72
2018-01-15T04:07:19.471Z,77.37
2018-01-15T04:09:47.797Z,85.10
2018-01-15T04:12:16.337Z,81.32
2018-01-15T04:14:44.763Z,89.53
2018-01-15T04:17:13.079Z,78.65
2018-01-15T04:19:42.344Z,79.65
2018-01-15T04:22:10.664Z,69.30
2018-01-15T04:24:39.742Z,62.03
2018-01-15T04:27:08.412Z,59.67
2018-01-15T04:29:36.726Z,84.55
2018-01-15T04:32:05.815Z,79.25
2018-01-15T04:34:34.553Z,64.12
2018-01-15T04:37:02.887Z,81.30
2018-01-15T04:39:31.219Z,71.07
2018-01-15T04:41:59.567Z,57.95
2018-01-15T04:44:27.883Z,81.68
2018-01-15T04:46:56.412Z,70.00
2018-01-15T04:49:25.119Z,91.20
2018-01-15T04:51:53.465Z,73.85
2018-01-15T04:54:22.568Z,81.10
2018-01-15T04:56:51.714Z,72.43
2018-01-15T04:59:20.036Z,61.65
2018-01-15T05:01:48.353Z,68.32
2018-01-15T05:04:16.967Z,58.53
2018-01-15T05:06:45.281Z,53.75
2018-01-15T05:09:13.655Z,66.12
2018-01-15T05:11:42.811Z,54.83
2018-01-15T05:14:11.453Z,52.05
2018-01-15T05:16:39.843Z,53.13
2018-01-15T05:19:08.211Z,51.03
2018-01-15T05:21:37.296Z,44.83
2018-01-15T05:24:06.383Z,51.33
2018-01-15T05:26:35.515Z,49.85
2018-01-15T05:29:03.835Z,43.60
2018-01-15T05:31:32.161Z,41.40
2018-01-15T05:34:00.865Z,39.85
2018-01-15T05:36:29.188Z,42.17
2018-01-15T05:38:57.516Z,34.40
2018-01-15T05:41:26.047Z,54.50
2018-01-15T05:43:55.165Z,35.75
2018-01-15T05:46:23.843Z,46.05
2018-01-15T05:48:52.188Z,46.65
2018-01-15T05:51:20.527Z,39.00
2018-01-15T05:53:49.132Z,34.35
2018-01-15T05:56:17.487Z,45.97
2018-01-15T05:58:45.815Z,42.65
2018-01-15T06:01:14.196Z,39.25
2018-01-15T06:03:42.516Z,34.75
2018-01-15T06:06:11.023Z,40.75
2018-01-15T06:08:39.935Z,39.85
2018-01-15T06:11:08.900Z,38.15
2018-01-15T06:13:37.219Z,45.65
2018-01-15T06:16:06.431Z,34.22
2018-01-15T06:18:34.748Z,37.88
2018-01-15T06:21:03.064Z,36.72
2018-01-15T06:23:31.752Z,46.22
2018-01-15T06:26:00.078Z,32.25
2018-01-15T06:28:28.864Z,32.20
2018-01-15T06:30:57.227Z,33.88
2018-01-15T06:33:26.315Z,38.42
2018-01-15T06:35:55.620Z,34.55
2018-01-15T06:38:24.751Z,35.05
2018-01-15T06:40:53.072Z,31.60
2018-01-15T06:43:21.395Z,33.72
2018-01-15T06:45:49.867Z,34.13
2018-01-15T06:48:18.192Z,36.25
2018-01-15T06:50:46.512Z,35.53
2018-01-15T06:53:14.851Z,33.65
2018-01-15T06:55:43.779Z,34.13
2018-01-15T06:58:12.176Z,32.05
2018-01-15T07:00:40.499Z,32.40
2018-01-15T07:03:08.811Z,35.58
2018-01-15T07:05:37.420Z,35.83
2018-01-15T07:08:05.740Z,38.28
2018-01-15T07:10:34.067Z,38.88
2018-01-15T07:13:02.452Z,37.25
2018-01-15T07:15:30.780Z,41.90
2018-01-15T07:17:59.108Z,37.60
2018-01-15T07:20:27.471Z,38.05
2018-01-15T07:22:56.559Z,47.65
2018-01-15T07:25:25.092Z,35.15
2018-01-15T07:27:55.211Z,42.20
2018-01-15T07:30:23.596Z,45.75
2018-01-15T07:32:51.912Z,44.38
2018-01-15T07:35:21.232Z,36.72
2018-01-15T07:37:49.706Z,38.45
2018-01-15T07:40:18.043Z,43.45
2018-01-15T07:42:46.415Z,40.75
2018-01-15T07:45:14.731Z,37.85
2018-01-15T07:47:43.831Z,43.40
2018-01-15T07:50:13.617Z,40.28
2018-01-15T07:52:42.411Z,43.45
2018-01-15T07:55:10.740Z,41.00
2018-01-15T07:57:39.067Z,50.80
2018-01-15T08:00:07.692Z,42.05
2018-01-15T08:02:36.777Z,44.15
2018-01-15T08:05:05.885Z,30.88
2018-01-15T08:07:34.608Z,39.83
2018-01-15T08:10:02.932Z,44.05
2018-01-15T08:12:31.259Z,37.85
2018-01-15T08:14:59.620Z,46.42
2018-01-15T08:17:27.936Z,38.53
2018-01-15T08:19:56.257Z,46.45
2018-01-15T08:22:25.132Z,42.00
2018-01-15T08:24:53.461Z,41.15
2018-01-15T08:27:21.811Z,53.25
2018-01-15T08:29:50.503Z,40.05
2018-01-15T08:32:18.824Z,44.70
2018-01-15T08:34:47.156Z,39.95
2018-01-15T08:37:15.659Z,35.38
2018-01-15T08:39:43.996Z,37.40
2018-01-15T08:42:13.075Z,45.25
2018-01-15T08:44:41.463Z,40.03
2018-01-15T08:47:09.871Z,39.85
2018-01-15T08:49:38.195Z,32.83
2018-01-15T08:52:07.694Z,37.58
2018-01-15T08:54:36.024Z,38.55
2018-01-15T08:57:04.364Z,39.63
2018-01-15T08:59:33.481Z,42.23
2018-01-15T09:02:02.569Z,38.08
2018-01-15T09:04:30.907Z,36.38
2018-01-15T09:06:59.259Z,35.07
2018-01-15T09:09:27.583Z,35.93
2018-01-15T09:11:56.527Z,34.23
2018-01-15T09:14:24.972Z,39.78
2018-01-15T09:16:53.313Z,47.63
2018-01-15T09:19:21.936Z,35.00
2018-01-15T09:21:51.011Z,31.43
2018-01-15T09:24:19.835Z,31.43
2018-01-15T09:26:48.223Z,31.03
2018-01-15T09:29:17.446Z,37.33
2018-01-15T09:31:45.823Z,28.50
2018-01-15T09:34:14.180Z,31.93
2018-01-15T09:36:42.815Z,34.50
2018-01-15T09:39:11.120Z,31.60
2018-01-15T09:41:39.444Z,33.43
2018-01-15T09:44:08.048Z,30.90
2018-01-15T09:46:36.359Z,33.70
2018-01-15T09:49:05.347Z,34.83
2018-01-15T09:51:34.023Z,32.50
2018-01-15T09:54:02.352Z,34.80
2018-01-15T09:56:30.651Z,33.17
2018-01-15T09:58:59.023Z,47.67
2018-01-15T10:01:27.372Z,38.93
2018-01-15T10:03:55.676Z,39.23
2018-01-15T10:06:24.026Z,25.50
2018-01-15T10:08:52.860Z,35.07
2018-01-15T10:11:21.167Z,30.43
2018-01-15T10:13:49.624Z,27.00
2018-01-15T10:16:17.923Z,30.20
2018-01-15T10:18:46.228Z,32.87
2018-01-15T10:21:14.572Z,33.43
2018-01-15T10:23:42.875Z,34.27
2018-01-15T10:26:11.208Z,39.60
2018-01-15T10:28:39.936Z,38.20
2018-01-15T10:31:09.019Z,33.10
2018-01-15T10:33:37.484Z,32.67
2018-01-15T10:36:06.484Z,29.67
2018-01-15T10:38:34.788Z,34.00
2018-01-15T10:41:03.098Z,34.50
2018-01-15T10:43:31.452Z,31.57
2018-01-15T10:45:59.845Z,32.30
2018-01-15T10:48:29.051Z,29.13
2018-01-15T10:50:57.816Z,29.70
2018-01-15T10:53:26.914Z,29.00
2018-01-15T10:55:55.267Z,27.33
2018-01-15T10:58:24.068Z,29.83
2018-01-15T11:00:52.944Z,25.33
2018-01-15T11:03:21.296Z,34.90
2018-01-15T11:05:49.596Z,33.00
2018-01-15T11:08:18.399Z,30.07
2018-01-15T11:10:47.391Z,37.27
2018-01-15T11:13:15.695Z,31.60
2018-01-15T11:15:44.000Z,29.50
2018-01-15T11:18:12.594Z,26.60
2018-01-15T11:20:41.072Z,25.53
2018-01-15T11:23:09.499Z,30.57
2018-01-15T11:25:37.807Z,30.57
2018-01-15T11:28:06.695Z,28.53
2018-01-15T11:30:35.567Z,26.43
2018-01-15T11:33:04.164Z,34.63
2018-01-15T11:35:32.467Z,31.10
2018-01-15T11:38:01.192Z,33.43
2018-01-15T11:40:29.615Z,28.30
2018-01-15T11:42:58.190Z,35.20
2018-01-15T11:45:26.614Z,35.27
2018-01-15T11:47:54.999Z,44.20
2018-01-15T11:50:23.716Z,36.23
2018-01-15T11:52:52.196Z,35.83
2018-01-15T11:55:21.267Z,31.17
2018-01-15T11:57:50.254Z,28.30
2018-01-15T12:00:18.611Z,32.33
2018-01-15T12:02:47.636Z,33.00
2018-01-15T12:05:15.959Z,36.70
2018-01-15T12:07:44.512Z,30.40
2018-01-15T12:10:14.065Z,34.67
2018-01-15T12:12:42.467Z,38.57
2018-01-15T12:15:10.763Z,38.60
2018-01-15T12:17:39.080Z,36.30
2018-01-15T12:20:07.467Z,31.83
2018-01-15T12:22:35.924Z,31.27
2018-01-15T12:25:04.692Z,37.93
2018-01-15T12:27:33.053Z,34.77
2018-01-15T12:30:01.366Z,32.60
2018-01-15T12:32:29.683Z,33.13
2018-01-15T12:34:58.031Z,39.70
2018-01-15T12:37:26.335Z,33.23
2018-01-15T12:39:54.636Z,30.63
2018-01-15T12:42:24.492Z,37.87
2018-01-15T12:44:54.778Z,30.00
2018-01-15T12:47:23.109Z,29.67
2018-01-15T12:49:51.415Z,31.40
2018-01-15T12:52:20.040Z,47.27
2018-01-15T12:54:49.121Z,34.80
2018-01-15T12:57:18.223Z,33.80
2018-01-15T12:59:47.351Z,30.40
2018-01-15T13:02:15.651Z,30.97
2018-01-15T13:04:44.719Z,28.77
2018-01-15T13:07:30.925Z,36.23
2018-01-15T13:09:59.227Z,34.53
2018-01-15T13:12:27.535Z,31.23
2018-01-15T13:14:56.671Z,30.10
2018-01-15T13:17:26.123Z,26.20
2018-01-15T13:19:54.500Z,33.63
2018-01-15T13:22:22.807Z,45.30
2018-01-15T13:24:51.147Z,37.10
2018-01-15T13:27:19.451Z,34.97
2018-01-15T13:29:47.840Z,36.00
2018-01-15T13:32:16.716Z,38.53
2018-01-15T13:34:45.088Z,31.00
2018-01-15T13:37:14.092Z,30.33
2018-01-15T13:39:42.447Z,29.30
2018-01-15T13:42:10.871Z,34.53
2018-01-15T13:44:39.170Z,31.63
2018-01-15T13:47:07.970Z,36.23
2018-01-15T13:49:36.272Z,34.20
2018-01-15T13:52:04.817Z,32.00
2018-01-15T13:54:33.152Z,27.73
2018-01-15T13:57:01.464Z,28.87
2018-01-15T13:59:29.767Z,32.03
2018-01-15T14:01:59.407Z,36.50
2018-01-15T14:04:27.707Z,30.93
2018-01-15T14:06:56.342Z,33.37
2018-01-15T14:09:24.699Z,33.00
2018-01-15T14:11:53.009Z,31.10
2018-01-15T14:14:21.760Z,91.80
2018-01-15T14:16:50.788Z,36.27
2018-01-15T14:19:20.536Z,36.67
2018-01-15T14:21:48.854Z,32.00
2018-01-15T14:24:17.228Z,29.33
2018-01-15T14:26:45.535Z,32.30
2018-01-15T14:29:13.843Z,32.03
2018-01-15T14:31:42.201Z,38.63
2018-01-15T14:34:10.508Z,30.80
2018-01-15T14:36:38.887Z,36.83
2018-01-15T14:39:07.247Z,45.50
2018-01-15T14:41:36.319Z,40.03
2018-01-15T14:44:04.674Z,50.50
2018-01-15T14:46:34.218Z,43.83
2018-01-15T14:49:02.527Z,34.60
2018-01-15T14:51:30.835Z,28.60
2018-01-15T14:53:59.456Z,37.90
2018-01-15T14:56:27.832Z,32.87
2018-01-15T14:58:56.515Z,36.13
2018-01-15T15:01:25.107Z,36.13
2018-01-15T15:03:53.418Z,33.33
2018-01-15T15:06:21.728Z,47.27
2018-01-15T15:08:50.083Z,38.80
2018-01-15T15:11:18.640Z,32.10
2018-01-15T15:13:47.452Z,44.67
2018-01-15T15:16:15.988Z,40.57
2018-01-15T15:18:44.305Z,36.10
2018-01-15T15:21:12.619Z,38.30
2018-01-15T15:23:40.967Z,32.17
2018-01-15T15:26:09.266Z,40.03
2018-01-15T15:28:37.567Z,38.50
2018-01-15T15:31:05.919Z,46.83
2018-01-15T15:33:34.223Z,40.00
2018-01-15T15:36:02.531Z,44.30
2018-01-15T15:38:32.151Z,37.07
2018-01-15T15:41:00.544Z,42.97
2018-01-15T15:43:28.850Z,39.30
2018-01-15T15:45:57.766Z,42.73
2018-01-15T15:48:26.096Z,37.97
2018-01-15T15:50:54.415Z,37.63
2018-01-15T15:53:22.763Z,40.67
2018-01-15T15:55:51.502Z,34.27
2018-01-15T15:58:20.009Z,43.27
2018-01-15T16:00:49.113Z,38.03
2018-01-15T16:03:17.410Z,34.67
2018-01-15T16:05:45.715Z,39.87
2018-01-15T16:08:14.094Z,40.33
2018-01-15T16:10:43.083Z,30.20
2018-01-15T16:13:11.409Z,39.83
2018-01-15T16:15:39.797Z,41.57
2018-01-15T16:18:08.113Z,30.20
2018-01-15T16:20:36.963Z,30.27
2018-01-15T16:23:05.315Z,35.77
2018-01-15T16:25:34.388Z,37.63
2018-01-15T16:28:02.691Z,28.10
2018-01-15T16:30:31.420Z,38.53
2018-01-15T16:32:59.724Z,35.20
2018-01-15T16:35:28.203Z,34.17
2018-01-15T16:37:56.887Z,38.43
2018-01-15T16:40:25.333Z,30.53
2018-01-15T16:42:53.649Z,32.63
2018-01-15T16:45:22.251Z,39.33
2018-01-15T16:47:50.551Z,44.17
2018-01-15T16:50:24.275Z,35.80
2018-01-15T16:52:52.579Z,32.20
2018-01-15T16:55:20.887Z,30.83
2018-01-15T16:57:49.925Z,31.97
2018-01-15T17:00:18.382Z,41.40
2018-01-15T17:02:46.697Z,44.40
2018-01-15T17:05:15.711Z,35.33
2018-01-15T17:07:44.016Z,41.37
2018-01-15T17:10:12.323Z,40.67
2018-01-15T17:12:42.025Z,41.80
2018-01-15T17:15:10.395Z,34.20
2018-01-15T17:17:38.719Z,35.30
2018-01-15T17:20:07.726Z,24.30
2018-01-15T17:22:36.039Z,23.77
2018-01-15T17:25:04.339Z,27.33
2018-01-15T17:27:32.690Z,30.73
2018-01-15T17:30:01.009Z,22.73
2018-01-15T17:32:29.315Z,25.00
2018-01-15T17:34:58.303Z,26.40
2018-01-15T17:37:26.675Z,24.93
2018-01-15T17:39:55.179Z,25.53
2018-01-15T17:42:23.764Z,32.37
2018-01-15T17:44:52.727Z,28.37
2018-01-15T17:47:21.323Z,27.13
2018-01-15T17:49:49.716Z,26.27
2018-01-15T17:52:18.040Z,28.57
2018-01-15T17:54:46.735Z,24.27
2018-01-15T17:57:15.051Z,29.00
2018-01-15T17:59:43.350Z,24.73
2018-01-15T18:02:12.075Z,26.43
2018-01-15T18:04:40.385Z,25.00
2018-01-15T18:07:09.353Z,29.03
2018-01-15T18:09:37.719Z,26.80
2018-01-15T18:12:06.584Z,27.87
2018-01-15T18:14:35.179Z,26.93
2018-01-15T18:17:04.069Z,27.87
2018-01-15T18:19:32.384Z,35.70
2018-01-15T18:22:01.339Z,32.83
2018-01-15T18:24:29.875Z,32.33
2018-01-15T18:26:58.309Z,34.80
2018-01-15T18:29:27.671Z,49.13
2018-01-15T18:31:56.734Z,38.07
2018-01-15T18:34:25.960Z,31.53
2018-01-15T18:36:54.263Z,27.47
2018-01-15T18:39:23.342Z,23.53
2018-01-15T18:41:52.428Z,26.10
2018-01-15T18:44:20.739Z,32.47
2018-01-15T18:46:49.043Z,34.87
2018-01-15T18:49:18.064Z,36.40
2018-01-15T18:51:47.019Z,30.90
2018-01-15T18:54:15.323Z,34.07
2018-01-15T18:56:43.760Z,34.07
2018-01-15T18:59:12.528Z,28.97
2018-01-15T19:01:40.827Z,33.50
2018-01-15T19:04:10.179Z,29.47
2018-01-15T19:06:38.484Z,32.03
2018-01-15T19:09:07.308Z,29.67
2018-01-15T19:11:35.827Z,31.10
2018-01-15T19:14:05.237Z,25.43
2018-01-15T19:16:33.995Z,28.97
2018-01-15T19:19:02.606Z,23.87
2018-01-15T19:21:30.917Z,21.33
2018-01-15T19:23:59.223Z,20.47
2018-01-15T19:26:28.784Z,18.90
2018-01-15T19:28:58.067Z,28.60
2018-01-15T19:31:26.969Z,24.83
2018-01-15T19:33:56.058Z,25.40
2018-01-15T19:36:30.367Z,20.57
2018-01-15T19:38:58.789Z,28.60
2018-01-15T19:41:29.371Z,21.47
2018-01-15T19:44:04.549Z,22.13
2018-01-15T19:46:38.259Z,24.63
2018-01-15T19:49:12.016Z,29.10
2018-01-15T19:51:45.711Z,26.17
2018-01-15T19:54:19.975Z,22.23
2018-01-15T19:56:53.751Z,23.27
2018-01-15T19:59:27.564Z,27.10
2018-01-15T20:02:02.192Z,25.00
2018-01-15T20:04:36.047Z,26.60
2018-01-15T20:07:09.935Z,21.43
2018-01-15T20:09:43.983Z,24.37
2018-01-15T20:12:12.768Z,25.67
2018-01-15T20:14:42.099Z,21.53
2018-01-15T20:17:11.908Z,25.90
2018-01-15T20:19:42.103Z,26.53
2018-01-15T20:22:12.453Z,28.23
2018-01-15T20:24:51.931Z,25.60
2018-01-15T20:27:21.866Z,21.93
2018-01-15T20:29:51.754Z,19.80
2018-01-15T20:32:25.788Z,24.07
2018-01-15T20:34:55.731Z,25.10
2018-01-15T20:37:24.955Z,23.40
2018-01-15T20:39:54.673Z,19.77
2018-01-15T20:42:24.669Z,24.43
2018-01-15T20:44:55.387Z,22.53
2018-01-15T20:47:33.803Z,26.80
2018-01-15T20:50:03.313Z,16.87
2018-01-15T20:52:39.006Z,19.90
2018-01-15T20:55:08.946Z,31.10
2018-01-15T20:57:42.629Z,24.60
2018-01-15T21:00:14.113Z,20.53
2018-01-15T21:02:44.246Z,20.97
2018-01-15T21:05:14.262Z,23.50
2018-01-15T21:07:43.279Z,26.00
2018-01-15T21:10:13.191Z,21.57
2018-01-15T21:12:41.645Z,23.20
2018-01-15T21:15:10.023Z,40.97
2018-01-15T21:17:38.980Z,21.07
2018-01-15T21:20:08.274Z,16.83
2018-01-15T21:22:36.630Z,18.60
2018-01-15T21:25:05.007Z,10.63
2018-01-15T21:27:34.872Z,7.70
2018-01-15T21:30:03.583Z,5.90
2018-01-15T21:32:31.940Z,5.37
2018-01-15T21:35:00.279Z,6.30
2018-01-15T21:37:29.637Z,5.17
2018-01-15T21:39:58.759Z,9.60
2018-01-15T21:42:27.838Z,4.33
2018-01-15T21:44:56.599Z,4.27
2018-01-15T21:47:24.896Z,4.37
2018-01-15T21:49:53.237Z,4.23
2018-01-15T21:52:22.939Z,3.57
2018-01-15T21:54:52.183Z,1.90
2018-01-15T21:57:20.528Z,3.00
2018-01-15T21:59:48.931Z,4.37
2018-01-15T22:02:17.227Z,4.00
2018-01-15T22:04:45.895Z,5.07
2018-01-15T22:07:14.265Z,3.40
2018-01-15T22:09:42.607Z,3.37
2018-01-15T22:12:11.486Z,3.30
2018-01-15T22:14:39.872Z,3.90
2018-01-15T22:17:08.284Z,4.07
2018-01-15T22:19:36.625Z,1.93
2018-01-15T22:22:04.968Z,3.30
2018-01-15T22:24:33.987Z,3.93
2018-01-15T22:27:02.384Z,3.87
2018-01-15T22:29:30.727Z,3.53
2018-01-15T22:31:59.065Z,3.03
2018-01-15T22:34:28.129Z,3.43
2018-01-15T22:36:57.240Z,2.80
2018-01-15T22:39:26.872Z,2.50
2018-01-15T22:41:55.966Z,2.87
2018-01-15T22:44:24.855Z,3.70
2018-01-15T22:46:53.369Z,3.53
2018-01-15T22:49:22.248Z,2.53
2018-01-15T22:51:51.475Z,4.50
2018-01-15T22:54:20.343Z,2.40
2018-01-15T22:56:49.672Z,3.27
2018-01-15T22:59:18.445Z,2.40
2018-01-15T23:01:47.860Z,4.80
2018-01-15T23:04:16.159Z,2.60
2018-01-15T23:06:44.520Z,1.90
2018-01-15T23:09:12.844Z,1.77
2018-01-15T23:11:41.454Z,3.70
2018-01-15T23:14:10.047Z,5.00
2018-01-15T23:16:38.432Z,4.73
2018-01-15T23:19:06.726Z,2.80
2018-01-15T23:21:35.068Z,1.97
2018-01-15T23:24:03.428Z,2.33
2018-01-15T23:26:32.075Z,2.43
2018-01-15T23:29:00.437Z,1.80
2018-01-15T23:31:28.744Z,2.17
2018-01-15T23:33:57.051Z,1.70
2018-01-15T23:36:25.634Z,2.53
2018-01-15T23:38:53.932Z,3.03
2018-01-15T23:41:22.823Z,2.00
2018-01-15T23:43:52.412Z,2.10
2018-01-15T23:46:20.721Z,1.90
2018-01-15T23:48:49.028Z,4.83
2018-01-15T23:51:17.391Z,2.13
2018-01-15T23:53:45.723Z,2.33
2018-01-15T23:56:14.027Z,2.10
2018-01-15T23:58:42.942Z,2.20
